createdAt,value
2022-08-23T00:00:13.848Z,1.88
2022-08-23T00:02:43.601Z,1.50
2022-08-23T00:05:13.036Z,1.63
2022-08-23T00:07:46.162Z,1.75
2022-08-23T00:10:17.676Z,1.73
2022-08-23T00:12:48.967Z,1.77
2022-08-23T00:15:20.808Z,2.13
2022-08-23T00:17:50.352Z,1.45
2022-08-23T00:20:20.168Z,1.48
2022-08-23T00:22:48.611Z,1.60
2022-08-23T00:25:17.303Z,1.55
2022-08-23T00:27:46.670Z,1.58
2022-08-23T00:30:16.527Z,1.63
2022-08-23T00:32:45.560Z,1.65
2022-08-23T00:35:26.421Z,1.48
2022-08-23T00:38:14.655Z,1.77
2022-08-23T00:40:45.949Z,1.83
2022-08-23T00:43:35.571Z,1.75
2022-08-23T00:46:28.057Z,1.60
2022-08-23T00:48:56.980Z,1.70
2022-08-23T00:51:28.668Z,1.95
2022-08-23T00:54:01.577Z,1.77
2022-08-23T00:56:32.232Z,2.08
2022-08-23T00:59:02.203Z,1.60
2022-08-23T01:01:30.473Z,1.88
2022-08-23T01:04:04.826Z,1.70
2022-08-23T01:06:38.096Z,1.52
2022-08-23T01:09:10.064Z,2.00
2022-08-23T01:11:41.845Z,1.77
2022-08-23T01:14:16.471Z,1.52
2022-08-23T01:16:48.576Z,1.40
2022-08-23T01:19:24.052Z,1.73
2022-08-23T01:21:58.600Z,1.92
2022-08-23T01:25:06.441Z,2.05
2022-08-23T01:27:17.849Z,2.08
2022-08-23T01:29:45.972Z,1.95
2022-08-23T01:32:14.858Z,2.08
2022-08-23T01:34:45.793Z,2.22
2022-08-23T01:37:21.717Z,2.33
2022-08-23T01:39:52.776Z,2.25
2022-08-23T01:42:21.127Z,2.40
2022-08-23T01:44:49.136Z,2.70
2022-08-23T01:47:19.252Z,2.47
2022-08-23T01:49:47.660Z,2.15
2022-08-23T01:52:17.172Z,2.72
2022-08-23T01:54:45.372Z,2.50
2022-08-23T01:57:14.875Z,2.20
2022-08-23T01:59:44.534Z,2.47
2022-08-23T02:02:14.947Z,2.28
2022-08-23T02:04:43.163Z,2.33
2022-08-23T02:07:11.173Z,2.20
2022-08-23T02:09:39.481Z,2.45
2022-08-23T02:12:08.701Z,2.53
2022-08-23T02:14:41.976Z,2.88
2022-08-23T02:17:18.525Z,3.00
2022-08-23T02:19:47.517Z,2.95
2022-08-23T02:22:15.662Z,3.17
2022-08-23T02:24:45.801Z,3.58
2022-08-23T02:27:16.245Z,3.50
2022-08-23T02:29:48.087Z,3.45
2022-08-23T02:32:20.261Z,3.70
2022-08-23T02:35:04.556Z,4.10
2022-08-23T02:37:34.150Z,2.72
2022-08-23T02:40:02.307Z,4.20
2022-08-23T02:42:30.848Z,4.63
2022-08-23T02:45:01.054Z,4.80
2022-08-23T02:47:29.223Z,4.85
2022-08-23T02:50:10.948Z,4.47
2022-08-23T02:52:39.058Z,4.88
2022-08-23T02:55:08.529Z,3.55
2022-08-23T02:57:36.688Z,4.68
2022-08-23T03:00:08.972Z,4.93
2022-08-23T03:02:37.876Z,5.03
2022-08-23T03:05:06.739Z,5.13
2022-08-23T03:07:36.470Z,5.15
2022-08-23T03:10:05.668Z,4.78
2022-08-23T03:12:36.564Z,4.07
2022-08-23T03:15:07.692Z,4.78
2022-08-23T03:17:36.161Z,5.75
2022-08-23T03:20:09.488Z,4.85
2022-08-23T03:22:37.710Z,5.30
2022-08-23T03:25:07.294Z,6.47
2022-08-23T03:27:51.024Z,6.30
2022-08-23T03:30:21.166Z,6.35
2022-08-23T03:32:57.666Z,5.90
2022-08-23T03:35:25.769Z,5.90
2022-08-23T03:37:55.320Z,5.18
2022-08-23T03:40:24.894Z,5.50
2022-08-23T03:42:53.431Z,6.57
2022-08-23T03:45:26.440Z,6.72
2022-08-23T03:47:54.592Z,6.45
2022-08-23T03:50:22.847Z,8.82
2022-08-23T03:52:51.829Z,8.77
2022-08-23T03:55:20.107Z,9.07
2022-08-23T03:57:50.393Z,11.85
2022-08-23T04:00:22.574Z,12.00
2022-08-23T04:02:54.747Z,11.65
2022-08-23T04:05:24.920Z,11.63
2022-08-23T04:08:19.606Z,10.25
2022-08-23T04:11:01.762Z,10.25
2022-08-23T04:13:30.407Z,10.30
2022-08-23T04:16:03.328Z,10.50
2022-08-23T04:18:35.081Z,11.77
2022-08-23T04:21:07.032Z,9.05
2022-08-23T04:23:35.389Z,11.50
2022-08-23T04:26:03.575Z,10.80
2022-08-23T04:28:34.633Z,10.90
2022-08-23T04:31:04.723Z,12.00
2022-08-23T04:33:35.626Z,11.93
2022-08-23T04:36:08.928Z,8.80
2022-08-23T04:38:37.035Z,10.95
2022-08-23T04:41:25.124Z,10.77
2022-08-23T04:43:56.283Z,13.00
2022-08-23T04:46:25.836Z,11.77
2022-08-23T04:48:57.408Z,11.13
2022-08-23T04:51:25.407Z,11.77
2022-08-23T04:53:56.898Z,11.23
2022-08-23T04:56:42.859Z,11.27
2022-08-23T04:59:13.936Z,11.05
2022-08-23T05:01:45.580Z,11.85
2022-08-23T05:04:16.369Z,11.93
2022-08-23T05:06:45.237Z,13.95
2022-08-23T05:09:17.123Z,14.18
2022-08-23T05:11:48.381Z,13.20
2022-08-23T05:14:16.613Z,13.93
2022-08-23T05:16:44.738Z,13.20
2022-08-23T05:19:14.926Z,12.32
2022-08-23T05:21:48.694Z,12.75
2022-08-23T05:24:17.397Z,11.75
2022-08-23T05:26:47.834Z,10.23
2022-08-23T05:29:16.376Z,10.88
2022-08-23T05:31:49.893Z,10.82
2022-08-23T05:34:25.996Z,10.52
2022-08-23T05:36:58.514Z,9.10
2022-08-23T05:39:36.708Z,9.40
2022-08-23T05:42:13.111Z,9.18
2022-08-23T05:44:42.377Z,9.15
2022-08-23T05:47:15.099Z,8.48
2022-08-23T05:49:58.743Z,8.15
2022-08-23T05:52:28.876Z,8.50
2022-08-23T05:54:56.966Z,7.90
2022-08-23T05:57:46.431Z,8.82
2022-08-23T06:00:16.136Z,8.10
2022-08-23T06:02:47.287Z,9.13
2022-08-23T06:05:18.099Z,8.27
2022-08-23T06:07:49.375Z,9.15
2022-08-23T06:10:20.750Z,10.40
2022-08-23T06:12:55.740Z,9.45
2022-08-23T06:15:23.904Z,9.18
2022-08-23T06:17:52.487Z,8.52
2022-08-23T06:20:22.173Z,9.63
2022-08-23T06:23:02.030Z,8.98
2022-08-23T06:25:30.460Z,8.82
2022-08-23T06:28:13.398Z,9.68
2022-08-23T06:30:45.760Z,9.10
2022-08-23T06:33:37.990Z,8.88
2022-08-23T06:36:37.599Z,10.15
2022-08-23T06:39:16.462Z,8.90
2022-08-23T06:42:13.234Z,8.73
2022-08-23T06:44:50.828Z,8.18
2022-08-23T06:47:28.500Z,9.23
2022-08-23T06:49:58.746Z,9.32
2022-08-23T06:52:49.293Z,8.85
2022-08-23T06:55:36.123Z,10.35
2022-08-23T06:58:23.359Z,9.20
2022-08-23T07:01:28.587Z,8.93
2022-08-23T07:04:06.964Z,8.90
2022-08-23T07:06:53.566Z,9.00
2022-08-23T07:09:23.592Z,10.27
2022-08-23T07:11:52.690Z,9.48
2022-08-23T07:14:22.599Z,9.73
2022-08-23T07:16:52.515Z,11.13
2022-08-23T07:19:25.745Z,10.18
2022-08-23T07:21:57.809Z,7.43
2022-08-23T07:24:32.290Z,10.38
2022-08-23T07:27:03.927Z,9.23
2022-08-23T07:29:32.729Z,10.70
2022-08-23T07:32:00.924Z,9.52
2022-08-23T07:34:30.064Z,10.23
2022-08-23T07:36:58.281Z,10.25
2022-08-23T07:39:28.009Z,11.50
2022-08-23T07:41:56.625Z,9.63
2022-08-23T07:44:27.230Z,9.63
2022-08-23T07:46:56.047Z,8.07
2022-08-23T07:49:29.375Z,9.23
2022-08-23T07:51:59.849Z,9.25
2022-08-23T07:54:29.493Z,7.10
2022-08-23T07:57:13.582Z,9.05
2022-08-23T07:59:56.649Z,8.77
2022-08-23T08:02:40.550Z,8.63
2022-08-23T08:05:21.442Z,8.02
2022-08-23T08:07:50.337Z,8.73
2022-08-23T08:10:20.804Z,8.25
2022-08-23T08:12:50.840Z,7.80
2022-08-23T08:15:21.863Z,8.93
2022-08-23T08:17:57.414Z,9.18
2022-08-23T08:20:44.770Z,8.63
2022-08-23T08:23:29.233Z,7.15
2022-08-23T08:26:23.091Z,8.85
2022-08-23T08:28:57.742Z,9.88
2022-08-23T08:31:27.615Z,10.20
2022-08-23T08:33:56.660Z,8.85
2022-08-23T08:36:35.175Z,9.27
2022-08-23T08:39:07.432Z,9.73
2022-08-23T08:42:04.320Z,8.02
2022-08-23T08:44:39.914Z,7.55
2022-08-23T08:47:15.091Z,7.93
2022-08-23T08:49:48.468Z,8.77
2022-08-23T08:52:21.593Z,7.60
2022-08-23T08:54:55.752Z,8.05
2022-08-23T08:57:27.472Z,8.30
2022-08-23T09:00:01.681Z,7.82
2022-08-23T09:02:35.181Z,8.40
2022-08-23T09:05:14.553Z,6.63
2022-08-23T09:07:53.556Z,7.93
2022-08-23T09:11:00.665Z,8.18
2022-08-23T09:14:03.154Z,7.75
2022-08-23T09:16:44.931Z,7.00
2022-08-23T09:19:14.408Z,7.53
2022-08-23T09:21:49.334Z,7.90
2022-08-23T09:24:17.722Z,8.50
2022-08-23T09:26:56.282Z,6.72
2022-08-23T09:29:28.755Z,7.97
2022-08-23T09:32:02.138Z,8.20
2022-08-23T09:34:45.053Z,8.52
2022-08-23T09:37:22.235Z,7.50
2022-08-23T09:39:54.101Z,7.32
2022-08-23T09:42:32.783Z,8.80
2022-08-23T09:45:02.819Z,9.05
2022-08-23T09:47:44.628Z,8.70
2022-08-23T09:50:26.631Z,7.22
2022-08-23T09:53:04.752Z,7.40
2022-08-23T09:55:36.315Z,7.82
2022-08-23T09:58:08.229Z,8.70
2022-08-23T10:00:38.658Z,7.32
2022-08-23T10:03:24.530Z,7.60
2022-08-23T10:05:58.327Z,8.48
2022-08-23T10:08:34.132Z,8.27
2022-08-23T10:11:15.935Z,9.07
2022-08-23T10:13:45.006Z,9.18
2022-08-23T10:16:24.934Z,7.72
2022-08-23T10:19:20.366Z,8.65
2022-08-23T10:21:58.818Z,8.18
2022-08-23T10:24:41.366Z,7.55
2022-08-23T10:27:37.288Z,8.55
2022-08-23T10:30:11.748Z,8.35
2022-08-23T10:33:01.198Z,8.55
2022-08-23T10:35:36.062Z,7.95
2022-08-23T10:38:17.697Z,7.60
2022-08-23T10:40:56.957Z,8.50
2022-08-23T10:43:37.566Z,8.40
2022-08-23T10:46:08.385Z,7.85
2022-08-23T10:48:48.995Z,8.27
2022-08-23T10:51:31.345Z,9.23
2022-08-23T10:54:07.498Z,8.07
2022-08-23T10:56:38.014Z,8.18
2022-08-23T10:59:14.270Z,7.65
2022-08-23T11:01:48.564Z,7.00
2022-08-23T11:04:28.155Z,8.57
2022-08-23T11:07:18.054Z,6.95
2022-08-23T11:09:51.791Z,7.70
2022-08-23T11:12:27.727Z,7.60
2022-08-23T11:15:22.962Z,7.03
2022-08-23T11:17:58.183Z,7.40
2022-08-23T11:21:00.021Z,7.13
2022-08-23T11:23:49.696Z,7.75
2022-08-23T11:27:07.630Z,7.40
2022-08-23T11:29:43.940Z,6.50
2022-08-23T11:32:42.127Z,7.47
2022-08-23T11:35:32.929Z,7.20
2022-08-23T11:38:05.918Z,7.50
2022-08-23T11:41:00.963Z,7.47
2022-08-23T11:43:38.111Z,7.45
2022-08-23T11:46:34.519Z,7.55
2022-08-23T11:49:41.005Z,6.97
2022-08-23T11:52:20.167Z,6.97
2022-08-23T11:55:05.248Z,6.88
2022-08-23T11:57:53.066Z,6.68
2022-08-23T12:00:29.303Z,6.80
2022-08-23T12:03:03.822Z,7.22
2022-08-23T12:06:05.452Z,6.60
2022-08-23T12:08:51.097Z,7.03
2022-08-23T12:11:20.986Z,6.78
2022-08-23T12:14:01.929Z,5.93
2022-08-23T12:16:36.378Z,5.82
2022-08-23T12:19:10.918Z,6.07
2022-08-23T12:21:46.449Z,6.43
2022-08-23T12:24:19.409Z,6.38
2022-08-23T12:26:59.083Z,6.15
2022-08-23T12:29:43.609Z,6.25
2022-08-23T12:32:19.591Z,6.40
2022-08-23T12:34:57.375Z,6.15
2022-08-23T12:37:35.752Z,5.82
2022-08-23T12:40:09.142Z,5.90
2022-08-23T12:42:41.151Z,6.18
2022-08-23T12:45:15.442Z,9.27
2022-08-23T12:47:55.583Z,9.07
2022-08-23T12:50:32.718Z,9.55
2022-08-23T12:53:07.093Z,9.20
2022-08-23T12:55:37.690Z,8.90
2022-08-23T12:58:08.354Z,8.73
2022-08-23T13:00:42.462Z,8.95
2022-08-23T13:03:18.802Z,8.30
2022-08-23T13:05:52.797Z,7.97
2022-08-23T13:08:34.338Z,8.35
2022-08-23T13:11:08.651Z,8.93
2022-08-23T13:13:40.187Z,8.90
2022-08-23T13:16:27.124Z,8.98
2022-08-23T13:18:56.814Z,7.97
2022-08-23T13:21:39.534Z,8.98
2022-08-23T13:24:38.160Z,7.78
2022-08-23T13:27:18.321Z,8.70
2022-08-23T13:29:56.523Z,8.65
2022-08-23T13:32:34.627Z,7.70
2022-08-23T13:35:32.123Z,8.68
2022-08-23T13:38:11.654Z,7.78
2022-08-23T13:40:43.691Z,7.15
2022-08-23T13:43:16.155Z,7.90
2022-08-23T13:45:51.553Z,7.90
2022-08-23T13:48:22.266Z,8.02
2022-08-23T13:50:54.013Z,7.88
2022-08-23T13:53:23.743Z,7.85
2022-08-23T13:55:55.537Z,7.50
2022-08-23T13:58:29.939Z,7.18
2022-08-23T14:01:01.280Z,7.22
2022-08-23T14:03:31.755Z,7.07
2022-08-23T14:05:59.910Z,8.13
2022-08-23T14:08:28.024Z,7.68
2022-08-23T14:10:56.063Z,7.78
2022-08-23T14:13:30.637Z,6.68
2022-08-23T14:21:45.214Z,9.77
2022-08-23T14:24:13.725Z,9.85
2022-08-23T14:26:50.034Z,8.57
2022-08-23T14:29:22.283Z,7.68
2022-08-23T14:31:53.115Z,7.43
2022-08-23T14:34:21.879Z,7.43
2022-08-23T14:39:39.550Z,7.97
2022-08-23T14:42:10.701Z,7.63
2022-08-23T14:44:39.874Z,7.90
2022-08-23T14:47:09.316Z,7.75
2022-08-23T14:49:38.613Z,7.72
2022-08-23T14:52:07.032Z,7.47
2022-08-23T14:54:37.395Z,8.25
2022-08-23T14:57:06.678Z,7.57
2022-08-23T14:59:34.764Z,7.47
2022-08-23T15:02:04.144Z,7.75
2022-08-23T15:04:35.996Z,8.32
2022-08-23T15:07:20.703Z,7.53
2022-08-23T15:09:49.609Z,8.50
2022-08-23T15:15:09.037Z,8.18
2022-08-23T15:17:48.386Z,8.40
2022-08-23T15:20:18.345Z,7.10
2022-08-23T15:22:55.088Z,8.45
2022-08-23T15:25:24.808Z,7.28
2022-08-23T15:27:54.584Z,8.23
2022-08-23T15:30:23.955Z,8.40
2022-08-23T15:33:03.683Z,8.00
2022-08-23T15:35:37.975Z,8.85
2022-08-23T15:38:08.869Z,8.98
2022-08-23T15:40:37.387Z,8.00
2022-08-23T15:43:06.630Z,8.30
2022-08-23T15:45:35.673Z,8.32
2022-08-23T15:48:08.081Z,7.80
2022-08-23T15:50:38.780Z,7.97
2022-08-23T15:53:06.929Z,7.88
2022-08-23T15:55:35.005Z,7.93
2022-08-23T15:58:03.027Z,8.07
2022-08-23T16:00:31.927Z,7.90
2022-08-23T16:03:18.852Z,8.40
2022-08-23T16:05:53.643Z,8.32
2022-08-23T16:08:25.768Z,8.98
2022-08-23T16:10:54.255Z,7.85
2022-08-23T16:13:22.574Z,9.32
2022-08-23T16:15:53.004Z,8.68
2022-08-23T16:18:21.197Z,7.82
2022-08-23T16:20:54.409Z,8.23
2022-08-23T16:23:23.162Z,9.05
2022-08-23T16:25:52.412Z,8.05
2022-08-23T16:28:20.548Z,8.57
2022-08-23T16:30:49.079Z,9.95
2022-08-23T16:33:17.258Z,9.27
2022-08-23T16:35:45.411Z,10.02
2022-08-23T16:38:15.110Z,8.80
2022-08-23T16:40:43.335Z,9.80
2022-08-23T16:43:14.894Z,9.73
2022-08-23T16:45:42.918Z,10.43
2022-08-23T16:48:14.662Z,9.45
2022-08-23T16:50:43.900Z,9.45
2022-08-23T16:53:12.198Z,9.27
2022-08-23T16:55:41.578Z,10.32
2022-08-23T16:58:09.814Z,11.90
2022-08-23T17:00:38.958Z,15.18
2022-08-23T17:03:07.924Z,13.38
2022-08-23T17:05:36.136Z,11.80
2022-08-23T17:08:07.490Z,11.18
2022-08-23T17:10:35.713Z,11.02
2022-08-23T17:13:06.036Z,11.05
2022-08-23T17:15:36.454Z,10.88
2022-08-23T17:18:07.855Z,11.50
2022-08-23T17:20:39.149Z,10.57
2022-08-23T17:23:08.615Z,9.77
2022-08-23T17:25:37.457Z,27.20
2022-08-23T17:28:07.138Z,12.43
2022-08-23T17:30:35.568Z,10.50
2022-08-23T17:33:05.652Z,10.90
2022-08-23T17:35:34.746Z,12.15
2022-08-23T17:38:04.212Z,15.45
2022-08-23T17:40:34.541Z,14.00
2022-08-23T17:43:03.562Z,13.70
2022-08-23T17:45:38.458Z,13.63
2022-08-23T17:48:08.876Z,14.57
2022-08-23T17:50:37.978Z,13.23
2022-08-23T17:53:06.698Z,13.30
2022-08-23T17:55:36.673Z,15.25
2022-08-23T17:58:04.993Z,14.48
2022-08-23T18:00:36.146Z,14.35
2022-08-23T18:03:05.768Z,14.30
2022-08-23T18:05:34.979Z,16.80
2022-08-23T18:08:04.800Z,16.23
2022-08-23T18:10:33.000Z,16.67
2022-08-23T18:13:01.339Z,16.75
2022-08-23T18:15:31.261Z,14.48
2022-08-23T18:18:02.406Z,16.55
2022-08-23T18:20:31.551Z,14.63
2022-08-23T18:23:01.089Z,16.45
2022-08-23T18:25:29.662Z,15.40
2022-08-23T18:28:06.392Z,20.55
2022-08-23T18:30:39.390Z,17.52
2022-08-23T18:33:12.500Z,16.00
2022-08-23T18:35:41.101Z,15.50
2022-08-23T18:38:09.383Z,16.27
2022-08-23T18:40:45.244Z,17.05
2022-08-23T18:43:16.781Z,16.35
2022-08-23T18:45:46.069Z,16.63
2022-08-23T18:48:16.192Z,15.15
2022-08-23T18:50:44.950Z,16.40
2022-08-23T18:53:15.664Z,14.73
2022-08-23T18:55:47.146Z,16.10
2022-08-23T18:58:15.198Z,14.60
2022-08-23T19:00:43.372Z,17.23
2022-08-23T19:03:12.352Z,16.17
2022-08-23T19:05:43.143Z,14.35
2022-08-23T19:08:12.158Z,15.75
2022-08-23T19:10:41.513Z,15.63
2022-08-23T19:13:10.072Z,17.10
2022-08-23T19:15:40.281Z,15.95
2022-08-23T19:18:08.631Z,18.30
2022-08-23T19:20:38.207Z,16.33
2022-08-23T19:23:08.711Z,16.25
2022-08-23T19:25:38.521Z,17.55
2022-08-23T19:28:07.446Z,15.30
2022-08-23T19:30:36.774Z,16.25
2022-08-23T19:33:05.462Z,17.20
2022-08-23T19:35:35.861Z,14.05
2022-08-23T19:38:03.896Z,16.42
2022-08-23T19:40:34.243Z,17.55
2022-08-23T19:43:02.564Z,16.73
2022-08-23T19:45:32.354Z,16.60
2022-08-23T19:48:02.880Z,17.63
2022-08-23T19:50:31.050Z,18.95
2022-08-23T19:52:59.254Z,14.93
2022-08-23T19:55:28.627Z,15.68
2022-08-23T19:57:58.247Z,17.05
2022-08-23T20:00:27.733Z,15.43
2022-08-23T20:02:56.123Z,16.27
2022-08-23T20:05:24.258Z,14.85
2022-08-23T20:07:52.350Z,15.10
2022-08-23T20:10:20.858Z,15.55
2022-08-23T20:12:49.029Z,14.20
2022-08-23T20:15:18.567Z,16.95
2022-08-23T20:17:46.689Z,16.50
2022-08-23T20:20:15.305Z,18.75
2022-08-23T20:23:01.248Z,18.23
2022-08-23T20:25:30.598Z,16.17
2022-08-23T20:27:59.256Z,15.13
2022-08-23T20:30:28.692Z,17.92
2022-08-23T20:32:56.855Z,16.80
2022-08-23T20:35:25.059Z,15.23
2022-08-23T20:37:53.151Z,14.15
2022-08-23T20:40:23.040Z,16.88
2022-08-23T20:42:51.451Z,16.70
2022-08-23T20:45:20.085Z,15.85
2022-08-23T20:47:49.863Z,14.52
2022-08-23T20:50:18.116Z,15.95
2022-08-23T20:52:46.934Z,15.35
2022-08-23T20:55:16.535Z,14.30
2022-08-23T20:57:44.555Z,15.68
2022-08-23T21:00:15.806Z,16.25
2022-08-23T21:02:44.321Z,13.63
2022-08-23T21:05:13.811Z,14.50
2022-08-23T21:07:41.974Z,14.15
2022-08-23T21:10:10.786Z,12.85
2022-08-23T21:12:41.050Z,15.95
2022-08-23T21:15:11.171Z,14.73
2022-08-23T21:17:39.332Z,16.27
2022-08-23T21:20:08.256Z,14.98
2022-08-23T21:22:37.716Z,14.95
2022-08-23T21:25:06.612Z,13.50
2022-08-23T21:27:34.916Z,15.18
2022-08-23T21:30:03.435Z,15.90
2022-08-23T21:32:33.193Z,14.60
2022-08-23T21:35:02.055Z,14.60
2022-08-23T21:37:31.125Z,17.05
2022-08-23T21:40:01.387Z,17.77
2022-08-23T21:42:30.531Z,17.13
2022-08-23T21:44:58.676Z,14.85
2022-08-23T21:47:26.728Z,15.27
2022-08-23T21:49:54.778Z,15.23
2022-08-23T21:52:22.934Z,15.68
2022-08-23T21:54:51.092Z,15.30
2022-08-23T21:57:20.490Z,15.00
2022-08-23T21:59:48.650Z,14.73
2022-08-23T22:02:17.460Z,13.95
2022-08-23T22:04:47.432Z,12.63
2022-08-23T22:07:15.471Z,14.30
2022-08-23T22:09:43.542Z,14.15
2022-08-23T22:12:11.520Z,14.75
2022-08-23T22:14:41.327Z,14.10
2022-08-23T22:17:09.307Z,14.40
2022-08-23T22:19:37.280Z,14.90
2022-08-23T22:22:06.050Z,14.90
2022-08-23T22:24:34.365Z,15.38
2022-08-23T22:27:02.458Z,13.85
2022-08-23T22:29:30.584Z,10.50
2022-08-23T22:32:02.001Z,13.18
2022-08-23T22:34:30.475Z,13.50
2022-08-23T22:36:58.463Z,13.63
2022-08-23T22:39:26.519Z,13.77
2022-08-23T22:41:55.378Z,13.70
2022-08-23T22:44:23.385Z,12.38
2022-08-23T22:46:51.508Z,13.45
2022-08-23T22:49:20.841Z,12.13
2022-08-23T22:51:55.022Z,14.10
2022-08-23T22:54:24.629Z,12.02
2022-08-23T22:56:54.795Z,14.55
2022-08-23T22:59:27.395Z,12.55
2022-08-23T23:01:58.438Z,11.25
2022-08-23T23:04:29.344Z,14.05
2022-08-23T23:06:58.378Z,14.25
2022-08-23T23:09:27.524Z,15.20
2022-08-23T23:11:56.327Z,13.00
2022-08-23T23:14:24.586Z,15.32
2022-08-23T23:16:53.297Z,14.35
2022-08-23T23:19:40.957Z,14.15
2022-08-23T23:22:11.148Z,14.55
2022-08-23T23:24:41.087Z,13.85
2022-08-23T23:27:10.448Z,13.50
2022-08-23T23:29:38.666Z,14.95
2022-08-23T23:32:07.187Z,11.68
2022-08-23T23:34:36.428Z,15.32
2022-08-23T23:37:05.365Z,14.60
2022-08-23T23:39:35.085Z,14.40
2022-08-23T23:42:03.322Z,14.85
2022-08-23T23:44:32.119Z,14.38
2022-08-23T23:47:01.645Z,13.00
2022-08-23T23:49:33.008Z,11.27
2022-08-23T23:52:02.868Z,12.43
2022-08-23T23:54:31.383Z,15.43
2022-08-23T23:57:00.826Z,13.75
2022-08-23T23:59:28.993Z,13.32
